Timeline UpdatesTrip UpdatesNews PostsPvt PostsTravel TipsAdmin PostsConv PostsFollowed PostsChat RequestsBlog PostsPNR Posts

Disclaimer
Search
 
 
Thu Jul 31, 2014 02:47:54 ISTHomeTrainsΣChainsAtlasPNRForumGalleryNewsFAQTripsMembersLoginFeedback
No Recent News for this Train
Other Trains in the News **new
Latest...
Permanent Augmentation of 1 3A coach wef 10/4/14
Fri Apr 04, 2014 (07:10PM)
⇐ Return Journey: Train# 11058

11057/Mumbai LTT - Amritsar (Pathankot) Express

Dec 31 2013 (1:15PM)
Change Departure Station:
Change Arrival Station:
Post a Train Travel TipPost a Train Travel Tip **new
Post a Comment/Question/Picture/VideoPost a Comment/Question/Picture/Video
Pantry/Catering
✕ NO Pantry Car
✓ Catering Avbl
RSA - Rake Sharing
No RSA
Rake/Coach Composition
LOCO-SLR-GEN-GEN-MILITARY-A1-B2-B1-S8-S7-S6-S5-S4-S3-S2-S1-RMS-LDS-[B2-S9-S10-SLR]. ; [B3-S9-S10-SLR] -> Is the Slip portion for Dhule and bifurcates from the main train at Chalisgaon.
Loco
LTT-UMB --> GZB WAP-1/4/5/7 UMB-ASR --> TKD WDM3A/WDP3A
News    PNR    Forum    Time-Table    Availability    Fare Chart    Map    Arr/Dep History    Trips    Gallery    ΣChains    X/O    Timeline    
Travel Time: 13h 7m    31 halts    Distance: 531 km    Avg Speed: 40 km/hr
Type: Mail/Express
Zone: CR/Central
Departs @ 03:23 (Avg 1h 3m late)
Platform# 2
SMTWTFS
Faridabad/FDB 
Arrives @ 16:30 (Avg 33m late)
Platform# 4
SMTWTFS
Amritsar Junction/ASR 

31 halts. 91 intermediate Stations between Faridabad and Amritsar Junction

Show ALL intermediate Stations  Show Old Time-Table

#CodeStation NameX/OArrivesAvgDepartsAvgHaltPFDay#KmSpeedElevZoneAddress
1LTTMumbai Lokmanya Tilak Terminus (5)  -23:45+431-1499.0457mCRMumbai, Maharashtra
2TNAThane (10)  00:07+800:10+83m72-1482.56110mCRThane, Maharashtra
3KYNKalyan Junction (8)  00:30+1600:35+185m42-1462.35910mCRKalyan 421301, Maharashtra
4KSRAKasara (4)  01:43+1601:45+222m12-1394.929290mCRDist. Thane 421602, Maharashtra
5IGPIgatpuri (4)X02:15+1502:20+275m22-1380.556589mCRIgatpuri 422403, Maharashtra
6DVLDevlali (3)X  03:08+1803:10+192m12-1335.669561mCRDist. Nashik 422401, Maharashtra
7NKNasik Road (3)X  03:15+2103:20+205m12-1329.897563mCRNashik 422101, Maharashtra
8MMRManmad Junction (6)X  04:05+2504:10+245m22-1257.176580mCRManmad 423104, Maharashtra
9CSNChalisgaon Junction (3)  05:03+2505:05+282m--2-1189.596352mCRChalisgaon 424101, Maharashtra
10PCPachora Junction (4)  05:33+3305:35+342m--2-1144.787264mCRPachora 424201, Maharashtra
11JLJalgaon Junction (4)X  06:08+3706:10+382m32-1097.048213mCRJalgaon 425001, Maharashtra
12BSLBhusaval Junction (8)  06:40+3406:50+3710m62-1072.971208mCRBhusaval 425201, Maharashtra
13SAVSavda (2)X  07:03+4207:05+422m--2-1057.465220mCRSavda, Maharashtra
14NBNimbhoraXO  07:13+4407:15+442m--2-1048.776229mCRJalgaon, Maharashtra
15RVRaver (2)X  07:23+4607:25+462m--2-1038.667242mCRJalgaon, Maharashtra
16BAUBurhanpur (2)  07:43+4607:45+462m22-1018.487269mCRBurhanpur, Madhya Pradesh
17NPNRNepanagar (2)  08:03+4808:05+482m--2-992.228289mCRState Highway 27, Madhya Pradesh
18KNWKhandwa Junction (5)X  09:35+209:40+75m22-949.573310mCRKhandwa, Madhya Pradesh
19TLVTalvadiya (2)X  09:53+1109:55+132m--2-933.899308mWCRKhandwa, Madhya Pradesh
20CAERChhanera (2)X  10:13+1810:15+222m--2-904.188283mWCRChhanera, Madhya Pradesh
21KKNKhirkiya (2)XO  10:36+2310:38+332m22-873.473281mWCRSH 15, Madhya Pradesh
22HDHarda (3)X  11:04+3111:06+312m--2-841.961289mWCRHarda, Madhya Pradesh
23TBNTimarni (2)O  11:20+3011:22+392m--2-827.840308mWCRTimarni, Madhya Pradesh
24BPFBanapura (2)O  12:04+2212:06+252m--2-799.546314mWCRBanapura, Madhya Pradesh
25ETItarsi Junction (7)  12:50+2212:55+285m12-766.160329mWCRItarsi 461111, Madhya Pradesh
26HBDHoshangabad (2)X  13:13+3113:15+312m--2-748.042308mWCRHoshangabad, Madhya Pradesh
27BNIBudni (2)  13:25+3313:27+342m--2-741.051311mWCRSehore 466445 Madhya pradesh, Madhya Pradesh
28ODGObaidulla GanjO  14:03+4314:05+432m22-710.258450mWCRObaidullaganj Raisen Dist., Madhya Pradesh
29MDDPMandi Dip (1)O  14:19+4314:21+442m12-696.757449mWCRMandideep, Madhya Pradesh
30HBJBhopal HabibGanj (5)XO  14:38+4414:40+452m12-680.615496mWCRHabibGanj, Madhya Pradesh
31BPLBhopal Junction (6)  15:05+3415:10+405m22-674.485497mWCRBhopal, Madhya Pradesh
32SCISanchi (2)X  15:41+4515:43+452m22-630.243428mWCRRaisen, Madhya Pradesh
33BHSVidisha (3)  15:56+4215:58+422m12-620.870432mWCRVidisha, Madhya Pradesh
34GLGGulabhGanj (3)  16:16+4316:18+432m12-599.892432mWCRVidisha, Madhya Pradesh
35BAQGanj Basoda (4)X  16:30+4416:32+442m12-581.571416mWCRVidisha, Madhya Pradesh
36MABAMandi Bamora (3)XO  16:56+4516:58+452m12-553.025413mWCRState Highway 14, Madhya Pradesh
37BINABina Junction (4)X  17:40+2117:45+245m32-535.858414mWCRJn Pt - KATNI/GUNA/ BPL/JHS, Madhya Pradesh
38DUADhaura (3)X  18:21+3118:23+312m--2-501.253407mNCRDhaura Tanda, Madhya Pradesh
39JLNJakhalaun (3)  18:36+2918:37+311m12-489.672394mNCRLalitpur(05176-272220), Uttar Pradesh
40LARLalitpur (3)  18:51+3118:53+312m32-472.986373mNCRLalitpur, Uttar Pradesh
41TBTTalbahat (4)X  19:21+3619:23+362m32-433.059314mNCRKhaniyadhana Station Rd, Madhya Pradesh
42BZYBasai (3)X  19:36+3519:38+352m22-420.260287mNCR07522289600(Gate ManMob. - 9452701575), Madhya Pradesh
43BABBabina (3)X  19:50+3619:52+362m12-408.140285mNCRBabina, Uttar Pradesh
44JHSJhansi Junction (7)X  20:30+3120:38+358m52-382.668259mNCRJhansi, Uttar Pradesh
45DAADatia (2)X  21:00+4021:02+402m--2-357.563264mNCRDatia, Madhya Pradesh
46SORSonagir (2)X  21:13+4121:15+412m--2-346.071211mNCRDatia, Madhya Pradesh
47DBADabra (3)X  21:31+4321:33+442m--2-327.269204mNCRDabra(District-Gwalior), Madhya Pradesh
48GWLGwalior Junction (4)X  22:10+5122:18+508m22-284.993214mNCRGwalior, Madhya Pradesh
49MRAMorena (3)X  22:43+5822:45+592m22-246.370176mNCRMorena, Madhya Pradesh
50DHODholpur Junction (3)X  23:08+1:0123:10+1:032m12-219.554177mNCRDholpur, Rajasthan
51AGCAgra Cantt. (6)X  00:08+1:0100:18+1:0410m23-166.834174mNCRAgra, Uttar Pradesh
52RKMRaja Ki Mandi (4)  00:25+1:1100:27+1:112m13-162.869170mNCRAgra, Uttar Pradesh
53MTJMathura Junction (10)X  01:10+1:1501:20+1:1110m33-113.289179mNCRMathura, Uttar Pradesh
54KSVKosi Kalan (3)  01:48+1:1701:50+1:192m13-71.744189mNCRKosi Kalan, Uttar Pradesh
55PWLPalwal (8)  02:48+5602:50+582m--3-29.271200mNRPalwal, Haryana
56BVHBallabgarh (5)  03:08+1:0203:10+1:022m33-8.144203mNRFaridabad, Haryana
57FDB»Faridabad (4)»  03:21+1:0303:23+1:032m230.052206mNRold Faridabad, Haryana
58NZMDelhi Hazrat Nizamuddin (7)  03:47+1:0703:49+1:072m3320.821209mNRNizamuddin East/Sarai KaleKhan Bus Terminal, Delhi NCT
59NDLSNew Delhi (16)  04:10+1:0804:30+1:0820m2328.215215mNRNew Delhi, Delhi NCT
60SZMDelhi Sabzi Mandi (2)  04:46+1:1504:48+1:152m--332.349220mNRGulabi Bagh, Delhi NCT
61BHDBadli (2)XO  05:01+1:1905:03+1:212m--342.954217mNRRohini, Delhi NCT
62NURNarela (2)X  05:17+1:2105:19+1:222m--355.638222mNRNarela, Delhi NCT
63SNPSonipat (3)X  05:46+1:1405:48+1:162m--372.679225mNRSonipat, Haryana
64GNUGanaur  06:00+1:2406:02+1:242m--388.539222mNRGanaur, Haryana
65SMKSamalkha (3)  06:21+1:1606:23+1:172m--3100.868229mNRSamalkha, Haryana
66PNPPanipat Junction (5)X  06:38+1:1606:40+1:172m33117.851235mNRPanipat, Haryana
67GRAGharaunda (2)  07:00+1:0907:02+1:102m--3134.766244mNRGharaunda, Haryana
68KUNKarnal (3)X  07:18+1:1107:20+1:112m23152.252253mNRKarnal, Haryana
69TRRTaraori (2)  07:34+1:0207:36+1:022m--3164.330255mNRTaraori, Haryana
70NLKRNilokheriXO  07:44+1:0907:46+1:112m--3168.230254mNRNilokheri, Haryana
71KKDEKurukshetra Junction (3)  08:20+4508:22+462m13185.363260mNRKurukshetra, Haryana
72SHDMShahbad Markanda (2)X  08:43+5408:45+542m23207.534267mNRShahabad Markanda, Haryana
73UMBAmbala Cantt. Junction (7)X09:20+4609:40+5120m63227.438278mNRAmbala 133001, Haryana
74UBCAmbala City (3)X  09:52+5909:54+1:002m33235.072273mNRNH-1, Haryana
75RPJRajpura Junction (3)  10:11+5810:13+592m13255.568272mNRNH-1, Punjab
76PTAPatiala (4)X  10:35+1:0710:40+1:075m13280.355256mNRPatiala, Punjab
77NBANabha (1)  11:08+1:0411:10+1:052m13306.146250mNRNabha, Punjab
78DUIDhuri Junction (4)  11:45+5811:50+595m--3333.159248mNRDhuri, Punjab
79METMalerkotla (2)  12:07+1:0012:09+1:012m13349.931248mNRMalerkotla., Punjab
80AHHAhmadgarh (1)  12:48+4812:50+482m13369.744256mNRAhmedgarh, Punjab
81LDHLudhiana Junction (7)X  13:25+5313:35+5710m33395.134246mNRLudhiana 141001, Punjab
82PHRPhillaur Junction (3)X  13:58+5514:00+552m23408.264246mNRPhillaur, Punjab
83GRYGoraya (2)X  14:12+5314:14+532m23421.054240mNRGoraya, Punjab
84PGWPhagwara Junction (3)X  14:25+5014:27+502m23430.870245mNRPhagwara, Punjab
85JRCJalandhar Cantt. Junction (3)X  14:41+5014:43+502m13447.124239mNRNear Rama Mandi, Punjab
86JUCJalandhar City Junction (5)  14:55+4915:00+525m13451.956239mNRJalandhar 144001, Punjab
87BEASBeas Junction (2)X  15:39+4315:41+432m13488.080238mNRBeas, Punjab
88JNLJandiala (2)X  15:59+4416:01+432m13511.940238mNRJandiala, Punjab
89ASR•Amritsar Junction (5)•  16:30+33-43531.1-233mNRAmritsar 143002, Punjab
Scroll to Top
Scroll to Bottom